sensor_id;sensor_type;location;lat;lon;timestamp;P1;durP1;ratioP1;P2;durP2;ratioP2
6527;SDS011;64597;42.664;23.256;2024-02-21T00:01:38;3.90;;;2.30;;
6527;SDS011;64597;42.664;23.256;2024-02-21T00:04:04;3.05;;;2.20;;
6527;SDS011;64597;42.664;23.256;2024-02-21T00:06:29;3.03;;;2.03;;
6527;SDS011;64597;42.664;23.256;2024-02-21T00:08:55;4.50;;;2.40;;
6527;SDS011;64597;42.664;23.256;2024-02-21T00:11:20;3.42;;;1.88;;
6527;SDS011;64597;42.664;23.256;2024-02-21T00:13:45;3.45;;;1.83;;
6527;SDS011;64597;42.664;23.256;2024-02-21T00:16:11;3.88;;;2.30;;
6527;SDS011;64597;42.664;23.256;2024-02-21T00:18:36;3.88;;;2.00;;
6527;SDS011;64597;42.664;23.256;2024-02-21T00:21:02;3.15;;;2.00;;
6527;SDS011;64597;42.664;23.256;2024-02-21T00:23:28;4.10;;;2.35;;
6527;SDS011;64597;42.664;23.256;2024-02-21T00:25:53;4.40;;;2.50;;
6527;SDS011;64597;42.664;23.256;2024-02-21T00:28:19;4.03;;;2.45;;
6527;SDS011;64597;42.664;23.256;2024-02-21T00:30:44;4.20;;;2.28;;
6527;SDS011;64597;42.664;23.256;2024-02-21T00:33:12;3.70;;;1.70;;
6527;SDS011;64597;42.664;23.256;2024-02-21T00:35:38;3.10;;;1.95;;
6527;SDS011;64597;42.664;23.256;2024-02-21T00:38:03;3.95;;;2.30;;
6527;SDS011;64597;42.664;23.256;2024-02-21T00:40:29;2.95;;;1.88;;
6527;SDS011;64597;42.664;23.256;2024-02-21T00:42:54;4.22;;;2.70;;
6527;SDS011;64597;42.664;23.256;2024-02-21T00:45:20;4.07;;;2.00;;
6527;SDS011;64597;42.664;23.256;2024-02-21T00:47:45;4.95;;;2.13;;
6527;SDS011;64597;42.664;23.256;2024-02-21T00:50:11;4.57;;;2.38;;
6527;SDS011;64597;42.664;23.256;2024-02-21T00:52:36;3.67;;;2.13;;
6527;SDS011;64597;42.664;23.256;2024-02-21T00:55:02;5.13;;;2.13;;
6527;SDS011;64597;42.664;23.256;2024-02-21T00:57:27;5.47;;;2.40;;
6527;SDS011;64597;42.664;23.256;2024-02-21T00:59:53;3.95;;;2.20;;
6527;SDS011;64597;42.664;23.256;2024-02-21T01:02:18;3.60;;;2.03;;
6527;SDS011;64597;42.664;23.256;2024-02-21T01:04:44;4.18;;;2.72;;
6527;SDS011;64597;42.664;23.256;2024-02-21T01:07:09;3.63;;;1.88;;
6527;SDS011;64597;42.664;23.256;2024-02-21T01:09:35;4.18;;;2.20;;
6527;SDS011;64597;42.664;23.256;2024-02-21T01:12:00;3.00;;;1.65;;
6527;SDS011;64597;42.664;23.256;2024-02-21T01:14:25;3.67;;;2.40;;
6527;SDS011;64597;42.664;23.256;2024-02-21T01:16:51;3.25;;;2.00;;
6527;SDS011;64597;42.664;23.256;2024-02-21T01:19:16;3.85;;;2.25;;
6527;SDS011;64597;42.664;23.256;2024-02-21T01:21:42;4.28;;;2.08;;
6527;SDS011;64597;42.664;23.256;2024-02-21T01:24:07;3.85;;;2.10;;
6527;SDS011;64597;42.664;23.256;2024-02-21T01:26:32;3.85;;;1.95;;
6527;SDS011;64597;42.664;23.256;2024-02-21T01:28:58;3.85;;;2.05;;
6527;SDS011;64597;42.664;23.256;2024-02-21T01:31:26;3.67;;;1.85;;
6527;SDS011;64597;42.664;23.256;2024-02-21T01:33:51;3.95;;;2.20;;
6527;SDS011;64597;42.664;23.256;2024-02-21T01:36:17;3.72;;;2.15;;
6527;SDS011;64597;42.664;23.256;2024-02-21T01:38:43;4.90;;;2.25;;
6527;SDS011;64597;42.664;23.256;2024-02-21T01:41:08;4.78;;;2.92;;
6527;SDS011;64597;42.664;23.256;2024-02-21T01:43:34;5.55;;;2.90;;
6527;SDS011;64597;42.664;23.256;2024-02-21T01:46:00;7.00;;;4.07;;
6527;SDS011;64597;42.664;23.256;2024-02-21T01:48:26;5.68;;;3.35;;
6527;SDS011;64597;42.664;23.256;2024-02-21T01:50:52;5.63;;;3.13;;
6527;SDS011;64597;42.664;23.256;2024-02-21T01:53:20;6.85;;;3.47;;
6527;SDS011;64597;42.664;23.256;2024-02-21T01:55:47;7.55;;;3.58;;
6527;SDS011;64597;42.664;23.256;2024-02-21T01:58:14;7.88;;;4.03;;
6527;SDS011;64597;42.664;23.256;2024-02-21T02:00:43;8.05;;;4.05;;
6527;SDS011;64597;42.664;23.256;2024-02-21T02:03:10;9.65;;;3.88;;
6527;SDS011;64597;42.664;23.256;2024-02-21T02:05:48;7.82;;;3.60;;
6527;SDS011;64597;42.664;23.256;2024-02-21T02:08:15;7.95;;;3.88;;
6527;SDS011;64597;42.664;23.256;2024-02-21T02:10:41;6.75;;;4.25;;
6527;SDS011;64597;42.664;23.256;2024-02-21T02:13:07;7.93;;;3.70;;
6527;SDS011;64597;42.664;23.256;2024-02-21T02:18:14;8.73;;;4.78;;
6527;SDS011;64597;42.664;23.256;2024-02-21T02:20:49;9.40;;;4.15;;
6527;SDS011;64597;42.664;23.256;2024-02-21T02:23:29;9.35;;;4.55;;
6527;SDS011;64597;42.664;23.256;2024-02-21T02:26:01;8.27;;;4.45;;
6527;SDS011;64597;42.664;23.256;2024-02-21T02:29:27;8.73;;;4.63;;
6527;SDS011;64597;42.664;23.256;2024-02-21T02:32:18;8.00;;;3.88;;
6527;SDS011;64597;42.664;23.256;2024-02-21T02:34:47;9.27;;;4.82;;
6527;SDS011;64597;42.664;23.256;2024-02-21T02:37:49;6.72;;;4.40;;
6527;SDS011;64597;42.664;23.256;2024-02-21T02:40:25;8.10;;;4.78;;
6527;SDS011;64597;42.664;23.256;2024-02-21T02:42:53;8.40;;;4.65;;
6527;SDS011;64597;42.664;23.256;2024-02-21T02:45:33;8.93;;;4.75;;
6527;SDS011;64597;42.664;23.256;2024-02-21T02:48:03;11.73;;;4.82;;
6527;SDS011;64597;42.664;23.256;2024-02-21T02:50:57;6.35;;;4.20;;
6527;SDS011;64597;42.664;23.256;2024-02-21T02:54:26;8.48;;;3.70;;
6527;SDS011;64597;42.664;23.256;2024-02-21T02:57:21;8.63;;;4.35;;
6527;SDS011;64597;42.664;23.256;2024-02-21T02:59:50;11.68;;;5.20;;
6527;SDS011;64597;42.664;23.256;2024-02-21T03:02:33;8.60;;;4.55;;
6527;SDS011;64597;42.664;23.256;2024-02-21T03:05:21;6.90;;;3.78;;
6527;SDS011;64597;42.664;23.256;2024-02-21T03:08:18;8.88;;;3.92;;
6527;SDS011;64597;42.664;23.256;2024-02-21T03:10:47;8.65;;;4.18;;
6527;SDS011;64597;42.664;23.256;2024-02-21T03:14:15;9.55;;;5.03;;
6527;SDS011;64597;42.664;23.256;2024-02-21T03:16:57;8.25;;;4.20;;
6527;SDS011;64597;42.664;23.256;2024-02-21T03:19:25;9.10;;;4.80;;
6527;SDS011;64597;42.664;23.256;2024-02-21T03:22:11;8.25;;;4.18;;
6527;SDS011;64597;42.664;23.256;2024-02-21T03:24:48;10.45;;;5.05;;
6527;SDS011;64597;42.664;23.256;2024-02-21T03:27:29;8.13;;;4.25;;
6527;SDS011;64597;42.664;23.256;2024-02-21T03:32:35;7.55;;;4.22;;
6527;SDS011;64597;42.664;23.256;2024-02-21T03:39:03;7.75;;;4.40;;
6527;SDS011;64597;42.664;23.256;2024-02-21T03:44:06;8.70;;;4.88;;
6527;SDS011;64597;42.664;23.256;2024-02-21T03:49:19;11.45;;;5.75;;
6527;SDS011;64597;42.664;23.256;2024-02-21T04:01:00;8.13;;;5.53;;
6527;SDS011;64597;42.664;23.256;2024-02-21T04:07:15;9.52;;;4.88;;
6527;SDS011;64597;42.664;23.256;2024-02-21T04:37:08;7.25;;;4.40;;
6527;SDS011;64597;42.664;23.256;2024-02-21T04:43:07;11.52;;;5.20;;
6527;SDS011;64597;42.664;23.256;2024-02-21T05:01:08;10.05;;;4.68;;
6527;SDS011;64597;42.664;23.256;2024-02-21T05:09:51;9.43;;;5.45;;
6527;SDS011;64597;42.664;23.256;2024-02-21T05:13:14;11.45;;;5.43;;
6527;SDS011;64597;42.664;23.256;2024-02-21T05:15:41;12.35;;;5.43;;
6527;SDS011;64597;42.664;23.256;2024-02-21T05:20:59;9.85;;;5.13;;
6527;SDS011;64597;42.664;23.256;2024-02-21T05:23:29;11.95;;;6.05;;
6527;SDS011;64597;42.664;23.256;2024-02-21T05:40:01;9.95;;;4.93;;
6527;SDS011;64597;42.664;23.256;2024-02-21T05:46:28;10.63;;;4.95;;
6527;SDS011;64597;42.664;23.256;2024-02-21T05:57:33;8.90;;;5.45;;
6527;SDS011;64597;42.664;23.256;2024-02-21T06:08:36;16.52;;;7.50;;
6527;SDS011;64597;42.664;23.256;2024-02-21T06:11:08;11.45;;;5.63;;
6527;SDS011;64597;42.664;23.256;2024-02-21T06:20:50;11.40;;;6.03;;
6527;SDS011;64597;42.664;23.256;2024-02-21T06:23:36;11.75;;;7.03;;
6527;SDS011;64597;42.664;23.256;2024-02-21T06:26:11;9.25;;;6.00;;
6527;SDS011;64597;42.664;23.256;2024-02-21T06:28:57;10.45;;;6.97;;
6527;SDS011;64597;42.664;23.256;2024-02-21T06:31:24;11.38;;;7.18;;
6527;SDS011;64597;42.664;23.256;2024-02-21T06:33:50;11.07;;;6.68;;
6527;SDS011;64597;42.664;23.256;2024-02-21T06:36:15;9.60;;;6.43;;
6527;SDS011;64597;42.664;23.256;2024-02-21T06:38:40;9.77;;;6.43;;
6527;SDS011;64597;42.664;23.256;2024-02-21T06:41:14;12.02;;;6.57;;
6527;SDS011;64597;42.664;23.256;2024-02-21T06:43:58;10.70;;;6.05;;
6527;SDS011;64597;42.664;23.256;2024-02-21T07:00:14;11.45;;;6.20;;
6527;SDS011;64597;42.664;23.256;2024-02-21T07:02:59;11.90;;;6.28;;
6527;SDS011;64597;42.664;23.256;2024-02-21T07:08:59;11.40;;;5.78;;
6527;SDS011;64597;42.664;23.256;2024-02-21T07:14:49;11.93;;;5.68;;
6527;SDS011;64597;42.664;23.256;2024-02-21T07:17:39;10.57;;;5.70;;
6527;SDS011;64597;42.664;23.256;2024-02-21T07:23:01;12.05;;;6.13;;
6527;SDS011;64597;42.664;23.256;2024-02-21T07:25:27;11.23;;;5.40;;
6527;SDS011;64597;42.664;23.256;2024-02-21T07:27:52;12.23;;;6.32;;
6527;SDS011;64597;42.664;23.256;2024-02-21T07:30:17;10.60;;;6.25;;
6527;SDS011;64597;42.664;23.256;2024-02-21T07:32:43;12.90;;;6.38;;
6527;SDS011;64597;42.664;23.256;2024-02-21T07:35:08;14.20;;;7.10;;
6527;SDS011;64597;42.664;23.256;2024-02-21T07:40:03;15.90;;;6.15;;
6527;SDS011;64597;42.664;23.256;2024-02-21T07:42:30;9.52;;;6.13;;
6527;SDS011;64597;42.664;23.256;2024-02-21T07:44:56;10.80;;;6.07;;
6527;SDS011;64597;42.664;23.256;2024-02-21T07:47:22;12.80;;;6.63;;
6527;SDS011;64597;42.664;23.256;2024-02-21T07:49:47;12.32;;;6.15;;
6527;SDS011;64597;42.664;23.256;2024-02-21T07:52:14;13.77;;;7.57;;
6527;SDS011;64597;42.664;23.256;2024-02-21T07:54:39;12.68;;;6.40;;
6527;SDS011;64597;42.664;23.256;2024-02-21T07:57:06;13.15;;;6.68;;
6527;SDS011;64597;42.664;23.256;2024-02-21T07:59:32;12.73;;;7.18;;
6527;SDS011;64597;42.664;23.256;2024-02-21T08:01:57;12.80;;;6.60;;
6527;SDS011;64597;42.664;23.256;2024-02-21T08:04:23;10.88;;;5.68;;
6527;SDS011;64597;42.664;23.256;2024-02-21T08:06:55;13.05;;;6.35;;
6527;SDS011;64597;42.664;23.256;2024-02-21T08:09:26;13.68;;;6.75;;
6527;SDS011;64597;42.664;23.256;2024-02-21T08:11:52;10.90;;;5.97;;
6527;SDS011;64597;42.664;23.256;2024-02-21T08:14:17;10.50;;;6.35;;
6527;SDS011;64597;42.664;23.256;2024-02-21T08:16:43;11.48;;;6.05;;
6527;SDS011;64597;42.664;23.256;2024-02-21T08:19:08;10.30;;;5.78;;
6527;SDS011;64597;42.664;23.256;2024-02-21T08:21:36;11.30;;;6.50;;
6527;SDS011;64597;42.664;23.256;2024-02-21T08:24:01;11.18;;;5.97;;
6527;SDS011;64597;42.664;23.256;2024-02-21T08:26:27;12.65;;;6.15;;
6527;SDS011;64597;42.664;23.256;2024-02-21T08:28:55;10.63;;;6.15;;
6527;SDS011;64597;42.664;23.256;2024-02-21T08:31:23;11.13;;;5.45;;
6527;SDS011;64597;42.664;23.256;2024-02-21T08:33:53;8.45;;;4.70;;
6527;SDS011;64597;42.664;23.256;2024-02-21T08:36:19;10.90;;;5.60;;
6527;SDS011;64597;42.664;23.256;2024-02-21T08:38:44;10.15;;;6.75;;
6527;SDS011;64597;42.664;23.256;2024-02-21T08:41:10;10.70;;;5.40;;
6527;SDS011;64597;42.664;23.256;2024-02-21T08:43:36;9.60;;;5.70;;
6527;SDS011;64597;42.664;23.256;2024-02-21T08:46:02;8.98;;;5.05;;
6527;SDS011;64597;42.664;23.256;2024-02-21T08:48:27;9.52;;;5.40;;
6527;SDS011;64597;42.664;23.256;2024-02-21T08:50:53;7.93;;;5.50;;
6527;SDS011;64597;42.664;23.256;2024-02-21T08:53:19;9.15;;;5.65;;
6527;SDS011;64597;42.664;23.256;2024-02-21T08:55:45;9.55;;;5.50;;
6527;SDS011;64597;42.664;23.256;2024-02-21T08:58:11;10.05;;;5.18;;
6527;SDS011;64597;42.664;23.256;2024-02-21T09:00:36;10.98;;;5.78;;
6527;SDS011;64597;42.664;23.256;2024-02-21T09:03:02;10.90;;;6.03;;
6527;SDS011;64597;42.664;23.256;2024-02-21T09:05:28;11.73;;;5.82;;
6527;SDS011;64597;42.664;23.256;2024-02-21T09:07:54;8.82;;;4.90;;
6527;SDS011;64597;42.664;23.256;2024-02-21T09:10:19;12.18;;;5.63;;
6527;SDS011;64597;42.664;23.256;2024-02-21T09:12:45;9.50;;;5.50;;
6527;SDS011;64597;42.664;23.256;2024-02-21T09:15:11;8.93;;;5.57;;
6527;SDS011;64597;42.664;23.256;2024-02-21T09:17:36;8.18;;;4.93;;
6527;SDS011;64597;42.664;23.256;2024-02-21T09:20:03;8.07;;;4.97;;
6527;SDS011;64597;42.664;23.256;2024-02-21T09:22:42;7.72;;;4.88;;
6527;SDS011;64597;42.664;23.256;2024-02-21T09:25:07;8.93;;;5.03;;
6527;SDS011;64597;42.664;23.256;2024-02-21T09:27:33;9.30;;;5.68;;
6527;SDS011;64597;42.664;23.256;2024-02-21T09:29:58;11.32;;;5.00;;
6527;SDS011;64597;42.664;23.256;2024-02-21T09:32:24;8.57;;;5.43;;
6527;SDS011;64597;42.664;23.256;2024-02-21T09:34:50;10.15;;;5.40;;
6527;SDS011;64597;42.664;23.256;2024-02-21T09:37:15;10.40;;;6.10;;
6527;SDS011;64597;42.664;23.256;2024-02-21T09:39:40;10.38;;;5.03;;
6527;SDS011;64597;42.664;23.256;2024-02-21T09:42:06;7.97;;;5.03;;
6527;SDS011;64597;42.664;23.256;2024-02-21T09:44:37;9.30;;;5.75;;
6527;SDS011;64597;42.664;23.256;2024-02-21T09:49:46;8.20;;;5.63;;
6527;SDS011;64597;42.664;23.256;2024-02-21T09:52:12;9.23;;;6.03;;
6527;SDS011;64597;42.664;23.256;2024-02-21T09:54:40;11.77;;;5.40;;
6527;SDS011;64597;42.664;23.256;2024-02-21T09:57:09;6.75;;;4.70;;
6527;SDS011;64597;42.664;23.256;2024-02-21T09:59:35;8.32;;;4.68;;
6527;SDS011;64597;42.664;23.256;2024-02-21T10:02:02;10.32;;;6.05;;
6527;SDS011;64597;42.664;23.256;2024-02-21T10:04:29;8.73;;;5.38;;
6527;SDS011;64597;42.664;23.256;2024-02-21T10:06:55;7.63;;;5.43;;
6527;SDS011;64597;42.664;23.256;2024-02-21T10:09:24;7.90;;;5.22;;
6527;SDS011;64597;42.664;23.256;2024-02-21T10:11:56;8.50;;;4.70;;
6527;SDS011;64597;42.664;23.256;2024-02-21T10:14:32;8.93;;;5.60;;
6527;SDS011;64597;42.664;23.256;2024-02-21T10:16:57;8.35;;;5.00;;
6527;SDS011;64597;42.664;23.256;2024-02-21T10:19:27;8.93;;;4.75;;
6527;SDS011;64597;42.664;23.256;2024-02-21T10:22:02;7.68;;;4.78;;
6527;SDS011;64597;42.664;23.256;2024-02-21T10:24:34;11.13;;;4.57;;
6527;SDS011;64597;42.664;23.256;2024-02-21T10:29:29;7.95;;;4.10;;
6527;SDS011;64597;42.664;23.256;2024-02-21T10:34:34;9.38;;;4.88;;
6527;SDS011;64597;42.664;23.256;2024-02-21T10:37:01;6.90;;;4.55;;
6527;SDS011;64597;42.664;23.256;2024-02-21T10:39:33;9.60;;;4.93;;
6527;SDS011;64597;42.664;23.256;2024-02-21T10:42:12;8.35;;;4.90;;
6527;SDS011;64597;42.664;23.256;2024-02-21T10:44:42;5.95;;;4.10;;
6527;SDS011;64597;42.664;23.256;2024-02-21T10:47:11;6.47;;;4.38;;
6527;SDS011;64597;42.664;23.256;2024-02-21T10:49:42;6.20;;;3.75;;
6527;SDS011;64597;42.664;23.256;2024-02-21T10:52:13;6.25;;;4.13;;
6527;SDS011;64597;42.664;23.256;2024-02-21T10:57:23;9.77;;;4.65;;
6527;SDS011;64597;42.664;23.256;2024-02-21T10:59:52;5.85;;;4.05;;
6527;SDS011;64597;42.664;23.256;2024-02-21T11:02:22;5.97;;;3.60;;
6527;SDS011;64597;42.664;23.256;2024-02-21T11:04:48;6.90;;;3.85;;
6527;SDS011;64597;42.664;23.256;2024-02-21T11:07:17;5.43;;;3.08;;
6527;SDS011;64597;42.664;23.256;2024-02-21T11:09:50;4.63;;;3.28;;
6527;SDS011;64597;42.664;23.256;2024-02-21T11:12:19;7.38;;;4.00;;
6527;SDS011;64597;42.664;23.256;2024-02-21T11:14:48;6.30;;;3.55;;
6527;SDS011;64597;42.664;23.256;2024-02-21T11:17:14;6.07;;;3.83;;
6527;SDS011;64597;42.664;23.256;2024-02-21T11:19:41;7.78;;;4.28;;
6527;SDS011;64597;42.664;23.256;2024-02-21T11:22:13;4.57;;;3.05;;
6527;SDS011;64597;42.664;23.256;2024-02-21T11:24:41;4.35;;;3.20;;
6527;SDS011;64597;42.664;23.256;2024-02-21T11:27:14;4.88;;;3.30;;
6527;SDS011;64597;42.664;23.256;2024-02-21T11:29:44;6.95;;;3.55;;
6527;SDS011;64597;42.664;23.256;2024-02-21T11:32:11;7.82;;;3.20;;
6527;SDS011;64597;42.664;23.256;2024-02-21T11:34:40;6.45;;;3.25;;
6527;SDS011;64597;42.664;23.256;2024-02-21T11:37:15;6.03;;;3.38;;
6527;SDS011;64597;42.664;23.256;2024-02-21T11:39:43;3.92;;;2.67;;
6527;SDS011;64597;42.664;23.256;2024-02-21T11:42:09;5.88;;;3.42;;
6527;SDS011;64597;42.664;23.256;2024-02-21T11:44:36;5.43;;;3.50;;
6527;SDS011;64597;42.664;23.256;2024-02-21T11:47:08;4.82;;;2.92;;
6527;SDS011;64597;42.664;23.256;2024-02-21T11:49:36;5.75;;;3.25;;
6527;SDS011;64597;42.664;23.256;2024-02-21T11:52:05;4.40;;;3.15;;
6527;SDS011;64597;42.664;23.256;2024-02-21T11:54:32;4.18;;;3.08;;
6527;SDS011;64597;42.664;23.256;2024-02-21T11:56:59;5.57;;;2.92;;
6527;SDS011;64597;42.664;23.256;2024-02-21T11:59:25;6.63;;;3.22;;
6527;SDS011;64597;42.664;23.256;2024-02-21T12:01:52;5.82;;;3.33;;
6527;SDS011;64597;42.664;23.256;2024-02-21T12:04:18;5.57;;;2.95;;
6527;SDS011;64597;42.664;23.256;2024-02-21T12:06:45;6.72;;;3.40;;
6527;SDS011;64597;42.664;23.256;2024-02-21T12:09:14;3.50;;;2.78;;
6527;SDS011;64597;42.664;23.256;2024-02-21T12:11:41;4.10;;;2.65;;
6527;SDS011;64597;42.664;23.256;2024-02-21T12:14:07;3.65;;;2.80;;
6527;SDS011;64597;42.664;23.256;2024-02-21T12:16:34;8.40;;;3.85;;
6527;SDS011;64597;42.664;23.256;2024-02-21T12:19:01;6.43;;;4.50;;
6527;SDS011;64597;42.664;23.256;2024-02-21T12:21:27;6.00;;;4.30;;
6527;SDS011;64597;42.664;23.256;2024-02-21T12:26:21;6.45;;;3.55;;
6527;SDS011;64597;42.664;23.256;2024-02-21T12:28:47;5.90;;;3.72;;
6527;SDS011;64597;42.664;23.256;2024-02-21T12:31:12;4.78;;;3.38;;
6527;SDS011;64597;42.664;23.256;2024-02-21T12:33:38;5.07;;;3.22;;
6527;SDS011;64597;42.664;23.256;2024-02-21T12:36:04;4.50;;;3.00;;
6527;SDS011;64597;42.664;23.256;2024-02-21T12:38:29;5.97;;;3.60;;
6527;SDS011;64597;42.664;23.256;2024-02-21T12:40:55;5.00;;;3.10;;
6527;SDS011;64597;42.664;23.256;2024-02-21T12:43:25;9.05;;;4.32;;
6527;SDS011;64597;42.664;23.256;2024-02-21T12:45:51;9.80;;;4.30;;
6527;SDS011;64597;42.664;23.256;2024-02-21T12:48:16;6.82;;;3.67;;
6527;SDS011;64597;42.664;23.256;2024-02-21T12:50:49;4.13;;;3.33;;
6527;SDS011;64597;42.664;23.256;2024-02-21T12:53:18;6.93;;;3.75;;
6527;SDS011;64597;42.664;23.256;2024-02-21T12:55:46;4.93;;;3.38;;
6527;SDS011;64597;42.664;23.256;2024-02-21T12:58:13;6.55;;;3.63;;
6527;SDS011;64597;42.664;23.256;2024-02-21T13:00:39;5.40;;;3.38;;
6527;SDS011;64597;42.664;23.256;2024-02-21T13:03:04;5.82;;;3.40;;
6527;SDS011;64597;42.664;23.256;2024-02-21T13:05:30;6.80;;;3.50;;
6527;SDS011;64597;42.664;23.256;2024-02-21T13:07:57;5.35;;;2.97;;
6527;SDS011;64597;42.664;23.256;2024-02-21T13:10:23;3.97;;;2.88;;
6527;SDS011;64597;42.664;23.256;2024-02-21T13:12:49;6.20;;;2.67;;
6527;SDS011;64597;42.664;23.256;2024-02-21T13:15:14;10.75;;;3.22;;
6527;SDS011;64597;42.664;23.256;2024-02-21T13:17:41;7.28;;;4.00;;
6527;SDS011;64597;42.664;23.256;2024-02-21T13:20:06;7.55;;;4.07;;
6527;SDS011;64597;42.664;23.256;2024-02-21T13:22:33;9.43;;;3.83;;
6527;SDS011;64597;42.664;23.256;2024-02-21T13:25:00;8.75;;;4.40;;
6527;SDS011;64597;42.664;23.256;2024-02-21T13:27:25;8.52;;;4.53;;
6527;SDS011;64597;42.664;23.256;2024-02-21T13:29:51;5.43;;;3.63;;
6527;SDS011;64597;42.664;23.256;2024-02-21T13:32:18;5.53;;;3.65;;
6527;SDS011;64597;42.664;23.256;2024-02-21T13:34:43;6.00;;;4.13;;
6527;SDS011;64597;42.664;23.256;2024-02-21T13:37:09;5.57;;;3.65;;
6527;SDS011;64597;42.664;23.256;2024-02-21T13:39:35;6.55;;;3.63;;
6527;SDS011;64597;42.664;23.256;2024-02-21T13:42:02;5.63;;;3.72;;
6527;SDS011;64597;42.664;23.256;2024-02-21T13:44:30;7.00;;;3.75;;
6527;SDS011;64597;42.664;23.256;2024-02-21T13:46:56;6.43;;;3.75;;
6527;SDS011;64597;42.664;23.256;2024-02-21T13:49:22;10.45;;;3.33;;
6527;SDS011;64597;42.664;23.256;2024-02-21T13:51:47;5.47;;;3.20;;
6527;SDS011;64597;42.664;23.256;2024-02-21T13:54:13;6.38;;;3.97;;
6527;SDS011;64597;42.664;23.256;2024-02-21T13:56:42;7.65;;;3.80;;
6527;SDS011;64597;42.664;23.256;2024-02-21T13:59:08;5.00;;;3.63;;
6527;SDS011;64597;42.664;23.256;2024-02-21T14:01:34;10.13;;;4.30;;
6527;SDS011;64597;42.664;23.256;2024-02-21T14:04:00;10.48;;;4.75;;
6527;SDS011;64597;42.664;23.256;2024-02-21T14:06:26;6.55;;;4.07;;
6527;SDS011;64597;42.664;23.256;2024-02-21T14:08:52;6.85;;;3.55;;
6527;SDS011;64597;42.664;23.256;2024-02-21T14:11:17;5.88;;;3.08;;
6527;SDS011;64597;42.664;23.256;2024-02-21T14:13:43;6.82;;;4.10;;
6527;SDS011;64597;42.664;23.256;2024-02-21T14:16:10;8.48;;;3.60;;
6527;SDS011;64597;42.664;23.256;2024-02-21T14:18:38;4.95;;;3.50;;
6527;SDS011;64597;42.664;23.256;2024-02-21T14:21:04;7.30;;;4.22;;
6527;SDS011;64597;42.664;23.256;2024-02-21T14:23:30;5.13;;;2.70;;
6527;SDS011;64597;42.664;23.256;2024-02-21T14:25:56;9.15;;;3.75;;
6527;SDS011;64597;42.664;23.256;2024-02-21T14:28:23;11.48;;;3.63;;
6527;SDS011;64597;42.664;23.256;2024-02-21T14:31:09;4.65;;;3.75;;
6527;SDS011;64597;42.664;23.256;2024-02-21T14:33:42;8.95;;;3.97;;
6527;SDS011;64597;42.664;23.256;2024-02-21T14:36:08;8.18;;;4.63;;
6527;SDS011;64597;42.664;23.256;2024-02-21T14:38:33;13.10;;;4.13;;
6527;SDS011;64597;42.664;23.256;2024-02-21T14:41:00;8.10;;;4.03;;
6527;SDS011;64597;42.664;23.256;2024-02-21T14:43:25;7.78;;;4.68;;
6527;SDS011;64597;42.664;23.256;2024-02-21T14:45:51;6.97;;;4.05;;
6527;SDS011;64597;42.664;23.256;2024-02-21T14:48:17;6.03;;;3.80;;
6527;SDS011;64597;42.664;23.256;2024-02-21T14:50:42;7.05;;;3.95;;
6527;SDS011;64597;42.664;23.256;2024-02-21T14:53:08;6.25;;;3.72;;
6527;SDS011;64597;42.664;23.256;2024-02-21T14:55:34;7.13;;;3.97;;
6527;SDS011;64597;42.664;23.256;2024-02-21T14:57:59;8.82;;;4.53;;
6527;SDS011;64597;42.664;23.256;2024-02-21T15:00:26;12.82;;;4.95;;
6527;SDS011;64597;42.664;23.256;2024-02-21T15:03:00;7.07;;;4.05;;
6527;SDS011;64597;42.664;23.256;2024-02-21T15:05:32;6.90;;;3.83;;
6527;SDS011;64597;42.664;23.256;2024-02-21T15:08:04;8.65;;;4.72;;
6527;SDS011;64597;42.664;23.256;2024-02-21T15:10:44;8.35;;;3.63;;
6527;SDS011;64597;42.664;23.256;2024-02-21T15:13:10;8.23;;;4.10;;
6527;SDS011;64597;42.664;23.256;2024-02-21T15:15:35;5.43;;;3.20;;
6527;SDS011;64597;42.664;23.256;2024-02-21T15:18:01;5.90;;;3.65;;
6527;SDS011;64597;42.664;23.256;2024-02-21T15:20:26;5.28;;;3.38;;
6527;SDS011;64597;42.664;23.256;2024-02-21T15:22:53;12.23;;;4.22;;
6527;SDS011;64597;42.664;23.256;2024-02-21T15:25:18;10.45;;;3.85;;
6527;SDS011;64597;42.664;23.256;2024-02-21T15:27:44;6.45;;;3.78;;
6527;SDS011;64597;42.664;23.256;2024-02-21T15:30:13;9.35;;;4.25;;
6527;SDS011;64597;42.664;23.256;2024-02-21T15:32:41;6.63;;;4.28;;
6527;SDS011;64597;42.664;23.256;2024-02-21T15:35:10;7.05;;;4.18;;
6527;SDS011;64597;42.664;23.256;2024-02-21T15:37:36;7.03;;;3.80;;
6527;SDS011;64597;42.664;23.256;2024-02-21T15:40:02;6.07;;;3.83;;
6527;SDS011;64597;42.664;23.256;2024-02-21T15:42:28;6.95;;;4.72;;
6527;SDS011;64597;42.664;23.256;2024-02-21T15:44:54;6.82;;;4.53;;
6527;SDS011;64597;42.664;23.256;2024-02-21T15:47:20;8.57;;;4.38;;
6527;SDS011;64597;42.664;23.256;2024-02-21T15:52:14;9.02;;;4.90;;
6527;SDS011;64597;42.664;23.256;2024-02-21T15:54:39;9.60;;;4.88;;
6527;SDS011;64597;42.664;23.256;2024-02-21T15:57:04;7.00;;;4.35;;
6527;SDS011;64597;42.664;23.256;2024-02-21T15:59:32;6.40;;;4.85;;
6527;SDS011;64597;42.664;23.256;2024-02-21T16:01:58;9.02;;;4.80;;
6527;SDS011;64597;42.664;23.256;2024-02-21T16:04:26;6.70;;;4.35;;
6527;SDS011;64597;42.664;23.256;2024-02-21T16:06:54;9.35;;;5.15;;
6527;SDS011;64597;42.664;23.256;2024-02-21T16:09:28;10.25;;;4.65;;
6527;SDS011;64597;42.664;23.256;2024-02-21T16:11:55;9.75;;;4.78;;
6527;SDS011;64597;42.664;23.256;2024-02-21T16:14:21;7.85;;;5.18;;
6527;SDS011;64597;42.664;23.256;2024-02-21T16:16:47;8.32;;;4.35;;
6527;SDS011;64597;42.664;23.256;2024-02-21T16:19:13;7.85;;;4.90;;
6527;SDS011;64597;42.664;23.256;2024-02-21T16:21:39;8.75;;;5.25;;
6527;SDS011;64597;42.664;23.256;2024-02-21T16:24:05;9.63;;;4.95;;
6527;SDS011;64597;42.664;23.256;2024-02-21T16:26:33;12.90;;;7.00;;
6527;SDS011;64597;42.664;23.256;2024-02-21T16:29:00;11.50;;;6.50;;
6527;SDS011;64597;42.664;23.256;2024-02-21T16:31:25;11.77;;;6.00;;
6527;SDS011;64597;42.664;23.256;2024-02-21T16:33:52;11.88;;;5.68;;
6527;SDS011;64597;42.664;23.256;2024-02-21T16:36:21;12.07;;;6.68;;
6527;SDS011;64597;42.664;23.256;2024-02-21T16:38:50;10.82;;;6.10;;
6527;SDS011;64597;42.664;23.256;2024-02-21T16:41:19;9.02;;;6.25;;
6527;SDS011;64597;42.664;23.256;2024-02-21T16:43:45;14.35;;;7.43;;
6527;SDS011;64597;42.664;23.256;2024-02-21T16:46:11;12.88;;;6.85;;
6527;SDS011;64597;42.664;23.256;2024-02-21T16:48:37;12.00;;;7.07;;
6527;SDS011;64597;42.664;23.256;2024-02-21T16:51:03;13.63;;;6.78;;
6527;SDS011;64597;42.664;23.256;2024-02-21T16:53:29;11.35;;;5.35;;
6527;SDS011;64597;42.664;23.256;2024-02-21T16:55:55;9.90;;;6.78;;
6527;SDS011;64597;42.664;23.256;2024-02-21T16:58:20;10.27;;;5.97;;
6527;SDS011;64597;42.664;23.256;2024-02-21T17:00:46;9.88;;;6.63;;
6527;SDS011;64597;42.664;23.256;2024-02-21T17:03:11;18.73;;;7.82;;
6527;SDS011;64597;42.664;23.256;2024-02-21T17:05:37;15.07;;;8.15;;
6527;SDS011;64597;42.664;23.256;2024-02-21T17:08:03;15.90;;;8.63;;
6527;SDS011;64597;42.664;23.256;2024-02-21T17:10:29;15.10;;;7.63;;
6527;SDS011;64597;42.664;23.256;2024-02-21T17:12:56;18.00;;;8.27;;
6527;SDS011;64597;42.664;23.256;2024-02-21T17:15:21;15.85;;;9.10;;
6527;SDS011;64597;42.664;23.256;2024-02-21T17:17:47;17.58;;;10.68;;
6527;SDS011;64597;42.664;23.256;2024-02-21T17:20:12;16.70;;;8.45;;
6527;SDS011;64597;42.664;23.256;2024-02-21T17:22:47;16.75;;;8.75;;
6527;SDS011;64597;42.664;23.256;2024-02-21T17:25:12;13.98;;;7.47;;
6527;SDS011;64597;42.664;23.256;2024-02-21T17:27:39;14.75;;;5.90;;
6527;SDS011;64597;42.664;23.256;2024-02-21T17:30:15;10.90;;;6.80;;
6527;SDS011;64597;42.664;23.256;2024-02-21T17:32:40;8.60;;;5.38;;
6527;SDS011;64597;42.664;23.256;2024-02-21T17:35:06;10.93;;;5.85;;
6527;SDS011;64597;42.664;23.256;2024-02-21T17:37:32;11.45;;;5.75;;
6527;SDS011;64597;42.664;23.256;2024-02-21T17:40:00;10.45;;;5.15;;